Time;durP1;ratioP1;P1;durP2;ratioP2;P2;SDS_P1;SDS_P2;PMS_P1;PMS_P2;Temp;Humidity;BMP_temperature;BMP_pressure;BME280_temperature;BME280_humidity;BME280_pressure;Samples;Min_cycle;Max_cycle;Signal;HPM_P1;HPM_P2
2022/09/25 00:01:34;;;;;;;13.02;10.55;;;;;;;13.10;nan;100142.13;4919656;29;20485;-65
2022/09/25 00:04:00;;;;;;;13.02;11.63;;;;;;;13.09;nan;100139.69;4929873;29;20038;-64
2022/09/25 00:06:27;;;;;;;;;;;;;;;13.07;nan;100139.03;4916699;29;20040;-65
2022/09/25 00:08:53;;;;;;;12.57;9.18;;;;;;;13.08;nan;100140.66;4930142;28;19978;-65
2022/09/25 00:11:23;;;;;;;9.70;8.70;;;;;;;13.17;nan;100143.06;4930356;29;20412;-65
2022/09/25 00:13:50;;;;;;;10.90;7.68;;;;;;;13.13;nan;100139.16;4931437;29;20043;-65
2022/09/25 00:16:21;;;;;;;9.70;7.80;;;;;;;13.12;nan;100150.75;4912094;29;20067;-65
2022/09/25 00:21:32;;;;;;;;;;;;;;;13.10;nan;100141.31;4918793;29;20267;-65
2022/09/25 00:24:02;;;;;;;;;;;;;;;13.07;nan;100137.19;4931657;28;20487;-65
2022/09/25 00:26:30;;;;;;;12.75;9.00;;;;;;;13.09;nan;100140.50;4935353;28;19918;-65
2022/09/25 00:28:56;;;;;;;10.57;8.00;;;;;;;13.14;nan;100139.97;4932339;29;20036;-65
2022/09/25 00:31:23;;;;;;;;;;;;;;;13.14;nan;100134.66;4923203;29;20413;-65
2022/09/25 00:33:50;;;;;;;9.07;6.78;;;;;;;13.13;nan;100138.28;4932008;29;20408;-65
2022/09/25 00:36:15;;;;;;;9.75;7.70;;;;;;;13.13;nan;100131.19;4933346;29;20122;-65
2022/09/25 00:38:40;;;;;;;9.67;8.67;;;;;;;13.23;nan;100132.75;4921063;28;20724;-65
2022/09/25 00:41:06;;;;;;;10.70;9.60;;;;;;;13.27;nan;100129.59;4928535;28;20690;-64
2022/09/25 00:43:49;;;;;;;9.85;8.30;;;;;;;13.22;nan;100128.44;4926806;29;20067;-65
2022/09/25 00:46:40;;;;;;;7.93;7.07;;;;;;;13.26;nan;100127.91;4923055;28;20554;-65
2022/09/25 00:49:11;;;;;;;;;;;;;;;13.21;nan;100126.81;4926247;28;20027;-65
2022/09/25 00:51:40;;;;;;;;;;;;;;;13.16;nan;100119.38;4913760;28;19926;-65
2022/09/25 00:54:06;;;;;;;;;;;;;;;13.13;nan;100117.91;4926439;28;19925;-65
2022/09/25 00:56:35;;;;;;;;;;;;;;;13.10;nan;100118.25;4933813;28;20442;-65
2022/09/25 00:59:01;;;;;;;;;;;;;;;13.05;nan;100117.97;4921143;29;19938;-65
2022/09/25 01:01:26;;;;;;;;;;;;;;;13.00;nan;100117.66;4930305;29;19914;-65
2022/09/25 01:03:51;;;;;;;10.18;8.32;;;;;;;12.99;nan;100115.19;4935476;29;19971;-65
2022/09/25 01:06:17;;;;;;;10.50;9.00;;;;;;;13.07;nan;100107.19;4924717;28;20426;-65
2022/09/25 01:08:45;;;;;;;9.98;8.85;;;;;;;13.14;nan;100111.59;4925961;29;20416;-65
2022/09/25 01:11:10;;;;;;;9.15;7.82;;;;;;;13.18;nan;100114.72;4917204;29;20412;-65
2022/09/25 01:13:37;;;;;;;9.73;8.52;;;;;;;13.23;nan;100111.50;4929141;29;20498;-65
2022/09/25 01:16:20;;;;;;;;;;;;;;;13.13;nan;100114.41;4918710;29;20084;-65
2022/09/25 01:19:01;;;;;;;;;;;;;;;13.08;nan;100109.63;4934225;29;19958;-65
2022/09/25 01:21:26;;;;;;;;;;;;;;;13.06;nan;100114.31;4927375;29;19950;-65
2022/09/25 01:24:00;;;;;;;;;;;;;;;13.04;nan;100118.13;4934875;28;19915;-65
2022/09/25 01:26:53;;;;;;;12.50;9.85;;;;;;;13.05;nan;100109.19;4915725;28;19958;-65
2022/09/25 01:29:35;;;;;;;10.48;8.07;;;;;;;13.07;nan;100107.19;4928364;29;20135;-65
2022/09/25 01:32:20;;;;;;;11.93;10.40;;;;;;;13.17;nan;100110.41;4922896;29;20496;-64
2022/09/25 01:35:03;;;;;;;10.77;8.93;;;;;;;13.13;nan;100098.47;4932531;29;20031;-65
2022/09/25 01:38:18;;;;;;;10.75;8.85;;;;;;;13.18;nan;100107.56;4929245;29;20781;-64
2022/09/25 01:41:18;;;;;;;11.80;9.52;;;;;;;13.15;nan;100099.13;4919341;29;20557;-64
2022/09/25 01:43:58;;;;;;;12.38;9.75;;;;;;;13.23;nan;100100.88;4913660;29;20502;-64
2022/09/25 01:46:29;;;;;;;15.63;12.57;;;;;;;13.16;nan;100095.50;4924647;29;20127;-64
2022/09/25 01:48:59;;;;;;;12.68;9.55;;;;;;;13.12;nan;100102.16;4924768;29;20272;-64
2022/09/25 01:51:48;;;;;;;15.70;11.90;;;;;;;13.06;nan;100093.09;4926494;29;20032;-64
2022/09/25 01:54:19;;;;;;;11.90;9.55;;;;;;;13.05;nan;100099.38;4933051;29;20062;-64
2022/09/25 01:56:58;;;;;;;11.02;8.88;;;;;;;13.07;nan;100099.22;4931719;29;20056;-64
2022/09/25 01:59:39;;;;;;;13.13;10.55;;;;;;;13.07;nan;100094.72;4916572;29;20110;-64
2022/09/25 02:02:12;;;;;;;11.40;9.90;;;;;;;13.16;nan;100096.31;4926153;29;20551;-64
2022/09/25 02:04:42;;;;;;;13.30;10.70;;;;;;;13.09;nan;100090.06;4919433;29;20064;-64
2022/09/25 02:07:13;;;;;;;14.40;9.90;;;;;;;13.05;nan;100087.94;4930771;29;20035;-64
2022/09/25 02:09:43;;;;;;;17.45;13.75;;;;;;;12.99;nan;100097.44;4927247;28;20066;-64
2022/09/25 02:12:18;;;;;;;17.08;12.90;;;;;;;12.94;nan;100089.16;4929766;29;20028;-64
2022/09/25 02:15:10;;;;;;;14.27;12.30;;;;;;;13.01;nan;100095.41;4923241;29;20417;-64
2022/09/25 02:20:31;;;;;;;;;;;;;;;12.96;nan;100097.78;4919511;29;20326;-64
2022/09/25 02:23:01;;;;;;;12.05;9.80;;;;;;;12.93;nan;100092.84;4922703;29;20387;-64
2022/09/25 02:25:37;;;;;;;15.55;11.32;;;;;;;12.89;nan;100100.31;4921027;29;20076;-64
2022/09/25 02:28:02;;;;;;;9.75;8.55;;;;;;;12.99;nan;100094.81;4930925;29;20436;-64
2022/09/25 02:30:27;;;;;;;10.05;8.20;;;;;;;12.96;nan;100090.66;4929392;29;20059;-63
2022/09/25 02:32:53;;;;;;;11.02;8.55;;;;;;;12.94;nan;100103.28;4932233;29;20062;-64
2022/09/25 02:35:18;;;;;;;9.38;7.45;;;;;;;12.95;nan;100094.31;4928244;29;20033;-64
2022/09/25 02:37:43;;;;;;;;;;;;;;;12.93;nan;100098.97;4929115;28;20048;-64
2022/09/25 02:40:10;;;;;;;15.90;12.02;;;;;;;12.87;nan;100096.19;4927749;28;19923;-65
2022/09/25 02:42:47;;;;;;;13.57;10.35;;;;;;;12.86;nan;100099.88;4915937;29;20036;-64
2022/09/25 02:45:31;;;;;;;13.10;10.55;;;;;;;12.85;nan;100093.75;4931809;28;20393;-64
2022/09/25 02:48:17;;;;;;;13.52;11.00;;;;;;;12.82;nan;100087.94;4913761;29;20036;-65
2022/09/25 02:51:16;;;;;;;12.27;9.48;;;;;;;12.82;nan;100094.06;4927037;29;20063;-65
2022/09/25 02:53:47;;;;;;;15.00;11.52;;;;;;;12.80;nan;100085.50;4920294;29;20067;-65
2022/09/25 02:56:20;;;;;;;13.82;10.75;;;;;;;12.81;nan;100094.25;4929931;29;20489;-65
2022/09/25 02:58:51;;;;;;;13.73;10.23;;;;;;;12.81;nan;100094.25;4918921;29;20504;-65
2022/09/25 03:01:19;;;;;;;14.57;11.07;;;;;;;12.82;nan;100093.25;4927382;29;20035;-65
2022/09/25 03:03:47;;;;;;;16.20;11.98;;;;;;;12.81;nan;100091.63;4930529;29;20665;-65
2022/09/25 03:06:13;;;;;;;14.10;10.93;;;;;;;12.81;nan;100097.75;4922971;29;20036;-65
2022/09/25 03:08:45;;;;;;;12.02;8.93;;;;;;;12.83;nan;100090.44;4914264;29;20051;-65
2022/09/25 03:11:13;;;;;;;13.15;9.15;;;;;;;12.85;nan;100079.66;4915651;29;20039;-65
2022/09/25 03:13:40;;;;;;;17.95;14.15;;;;;;;12.79;nan;100085.66;4920704;29;20044;-65
2022/09/25 03:16:19;;;;;;;13.27;11.40;;;;;;;12.88;nan;100080.09;4928958;28;20415;-68
2022/09/25 03:18:48;;;;;;;14.23;10.10;;;;;;;12.88;nan;100079.28;4923456;29;20428;-65
2022/09/25 03:21:14;;;;;;;11.77;9.15;;;;;;;12.90;nan;100079.94;4919035;29;20422;-65
2022/09/25 03:23:39;;;;;;;10.07;8.60;;;;;;;13.02;nan;100081.16;4916766;29;20411;-65
2022/09/25 03:26:06;;;;;;;9.43;7.10;;;;;;;12.98;nan;100082.50;4915569;29;20124;-65
2022/09/25 03:28:31;;;;;;;;;;;;;;;12.91;nan;100087.69;4930727;28;20040;-65
2022/09/25 03:31:00;;;;;;;13.10;9.73;;;;;;;12.86;nan;100087.41;4912716;29;19986;-65
2022/09/25 03:33:27;;;;;;;16.20;12.75;;;;;;;12.81;nan;100097.75;4924997;29;20035;-65
2022/09/25 03:36:13;;;;;;;16.15;11.75;;;;;;;12.77;nan;100092.97;4921858;29;20043;-65
2022/09/25 03:38:40;;;;;;;14.80;11.38;;;;;;;12.72;nan;100089.00;4931306;28;20047;-65
2022/09/25 03:41:07;;;;;;;16.48;12.45;;;;;;;12.69;nan;100096.50;4921307;29;20510;-65
2022/09/25 03:43:35;;;;;;;15.43;11.45;;;;;;;12.69;nan;100086.72;4918485;29;20044;-65
2022/09/25 03:46:01;;;;;;;18.38;12.80;;;;;;;12.65;nan;100087.22;4922569;29;20055;-65
2022/09/25 03:48:26;;;;;;;13.57;11.38;;;;;;;12.75;nan;100088.66;4911612;29;20425;-65
2022/09/25 03:50:52;;;;;;;11.33;9.03;;;;;;;12.81;nan;100083.66;4913620;29;20472;-65
2022/09/25 03:53:17;;;;;;;9.55;8.20;;;;;;;12.74;nan;100088.84;4914622;29;20599;-65
2022/09/25 03:55:47;;;;;;;14.20;10.70;;;;;;;12.71;nan;100087.38;4930075;29;20492;-65
2022/09/25 03:58:13;;;;;;;13.57;11.00;;;;;;;12.69;nan;100080.59;4911027;29;20040;-65
2022/09/25 04:00:39;;;;;;;16.17;11.98;;;;;;;12.67;nan;100078.09;4927042;29;20040;-65
2022/09/25 04:03:04;;;;;;;16.23;12.10;;;;;;;12.66;nan;100078.28;4930497;29;20047;-65
2022/09/25 04:05:29;;;;;;;15.85;12.60;;;;;;;12.61;nan;100076.16;4923921;29;20568;-65
2022/09/25 04:07:55;;;;;;;17.88;12.65;;;;;;;12.58;nan;100078.31;4923057;28;20031;-65
2022/09/25 04:10:20;;;;;;;15.18;11.68;;;;;;;12.57;nan;100080.16;4930335;29;20508;-65
2022/09/25 04:12:45;;;;;;;15.73;11.20;;;;;;;12.57;nan;100076.69;4928825;29;20048;-65
2022/09/25 04:15:10;;;;;;;14.20;9.17;;;;;;;12.58;nan;100083.63;4930792;29;20276;-65
2022/09/25 04:17:36;;;;;;;11.13;8.40;;;;;;;12.61;nan;100080.63;4935805;28;20291;-65
2022/09/25 04:20:01;;;;;;;13.60;9.33;;;;;;;12.60;nan;100078.97;4932697;28;20411;-64
2022/09/25 04:22:26;;;;;;;12.65;9.95;;;;;;;12.59;nan;100072.88;4929231;29;20358;-65
2022/09/25 04:24:53;;;;;;;14.18;10.52;;;;;;;12.56;nan;100083.84;4921167;29;20074;-65
2022/09/25 04:27:21;;;;;;;11.83;9.17;;;;;;;12.66;nan;100079.13;4929357;29;20919;-65
2022/09/25 04:29:47;;;;;;;10.23;8.80;;;;;;;12.70;nan;100075.13;4923095;28;20413;-65
2022/09/25 04:34:57;;;;;;;11.93;9.98;;;;;;;12.70;nan;100082.22;4930643;29;20555;-65
2022/09/25 04:37:25;;;;;;;10.17;8.90;;;;;;;12.72;nan;100082.88;4929846;29;20494;-65
2022/09/25 04:39:52;;;;;;;13.32;10.07;;;;;;;12.66;nan;100080.94;4930834;28;20537;-65
2022/09/25 04:42:19;;;;;;;14.88;11.45;;;;;;;12.71;nan;100083.88;4930347;28;20412;-65
2022/09/25 04:44:45;;;;;;;11.57;9.52;;;;;;;12.71;nan;100081.25;4935515;28;20488;-65
2022/09/25 04:47:10;;;;;;;17.80;13.50;;;;;;;12.63;nan;100082.13;4932917;28;20028;-65
2022/09/25 04:49:37;;;;;;;15.52;12.52;;;;;;;12.57;nan;100089.97;4926193;29;20299;-65
2022/09/25 04:52:03;;;;;;;13.82;10.77;;;;;;;12.63;nan;100086.59;4915606;28;20564;-64
2022/09/25 04:54:28;;;;;;;15.57;11.25;;;;;;;12.58;nan;100087.09;4930535;28;20512;-65
2022/09/25 04:56:53;;;;;;;14.90;10.57;;;;;;;12.57;nan;100082.81;4924780;29;20036;-65
2022/09/25 04:59:19;;;;;;;14.73;11.02;;;;;;;12.57;nan;100088.13;4924520;29;20330;-65
2022/09/25 05:01:44;;;;;;;16.80;12.00;;;;;;;12.55;nan;100084.81;4921556;29;20040;-65
2022/09/25 05:04:09;;;;;;;;;;;;;;;12.50;nan;100088.00;4920727;29;20274;-65
2022/09/25 05:06:34;;;;;;;17.90;12.50;;;;;;;12.48;nan;100082.03;4925977;28;19919;-65
2022/09/25 05:09:00;;;;;;;;;;;;;;;12.43;nan;100084.38;4913389;29;20284;-65
2022/09/25 05:11:26;;;;;;;;;;;;;;;12.40;nan;100090.03;4924700;29;19966;-65
2022/09/25 05:13:51;;;;;;;21.77;14.10;;;;;;;12.38;nan;100085.91;4922255;28;20392;-65
2022/09/25 05:16:17;;;;;;;;;;;;;;;12.36;nan;100088.72;4924049;29;20039;-65
2022/09/25 05:18:43;;;;;;;;;;;;;;;12.32;nan;100084.78;4923434;29;19930;-65
2022/09/25 05:21:08;;;;;;;;;;;;;;;12.35;nan;100084.44;4919383;29;19919;-65
2022/09/25 05:23:33;;;;;;;17.98;11.95;;;;;;;12.36;nan;100082.63;4924240;29;19919;-65
2022/09/25 05:26:00;;;;;;;16.10;13.13;;;;;;;12.46;nan;100080.56;4919468;28;20413;-65
2022/09/25 05:28:32;;;;;;;19.60;13.55;;;;;;;12.42;nan;100084.56;4929947;28;20091;-64
2022/09/25 05:31:02;;;;;;;20.83;14.68;;;;;;;12.41;nan;100086.38;4920220;29;20055;-64
2022/09/25 05:33:27;;;;;;;14.80;11.23;;;;;;;12.52;nan;100082.53;4924962;29;20487;-64
2022/09/25 05:35:53;;;;;;;15.10;12.00;;;;;;;12.57;nan;100082.00;4928531;29;20466;-64
2022/09/25 05:38:18;;;;;;;12.23;10.30;;;;;;;12.63;nan;100083.94;4926386;29;20427;-65
2022/09/25 05:40:44;;;;;;;10.33;9.07;;;;;;;12.65;nan;100085.41;4921062;29;20576;-65
2022/09/25 05:43:11;;;;;;;12.13;10.47;;;;;;;12.72;nan;100093.50;4933051;29;20804;-64
2022/09/25 05:45:36;;;;;;;11.10;9.45;;;;;;;12.75;nan;100088.66;4932787;28;20573;-64
2022/09/25 05:48:07;;;;;;;14.05;11.32;;;;;;;12.68;nan;100087.72;4930626;29;20119;-64
2022/09/25 05:50:32;;;;;;;;;;;;;;;12.69;nan;100089.38;4933499;29;20431;-65
2022/09/25 05:53:00;;;;;;;17.30;12.50;;;;;;;12.66;nan;100083.59;4926868;29;19933;-65
2022/09/25 05:55:26;;;;;;;15.55;10.50;;;;;;;12.66;nan;100087.06;4916782;29;20063;-65
2022/09/25 05:57:51;;;;;;;19.85;14.07;;;;;;;12.66;nan;100091.56;4918566;29;20036;-65
2022/09/25 06:00:17;;;;;;;17.30;12.27;;;;;;;12.67;nan;100094.00;4927498;29;20464;-65
2022/09/25 06:02:43;;;;;;;11.53;9.73;;;;;;;12.77;nan;100096.44;4923312;29;20467;-65
2022/09/25 06:05:09;;;;;;;13.15;10.52;;;;;;;12.84;nan;100085.94;4922836;29;20871;-65
2022/09/25 06:07:35;;;;;;;14.30;11.32;;;;;;;12.74;nan;100099.44;4934154;28;20048;-65
2022/09/25 06:10:00;;;;;;;15.43;11.82;;;;;;;12.69;nan;100093.84;4934563;29;20091;-65
2022/09/25 06:12:28;;;;;;;14.13;11.82;;;;;;;12.74;nan;100086.19;4931533;29;20487;-65
2022/09/25 06:14:57;;;;;;;13.02;10.90;;;;;;;12.84;nan;100089.41;4933749;29;20459;-66
2022/09/25 06:17:22;;;;;;;9.57;8.40;;;;;;;12.92;nan;100088.56;4931950;29;20792;-65
2022/09/25 06:19:48;;;;;;;12.68;10.63;;;;;;;12.83;nan;100090.44;4924553;29;20034;-65
2022/09/25 06:22:13;;;;;;;16.52;12.90;;;;;;;12.78;nan;100092.78;4933538;29;20485;-65
2022/09/25 06:24:38;;;;;;;13.70;11.00;;;;;;;12.77;nan;100088.47;4935359;29;20046;-65
2022/09/25 06:27:04;;;;;;;;;;;;;;;12.73;nan;100084.53;4949991;23;20052;-67
2022/09/25 06:29:30;;;;;;;17.30;13.57;;;;;;;12.70;nan;100090.19;4931429;29;19922;-66
2022/09/25 06:31:55;;;;;;;19.88;14.18;;;;;;;12.68;nan;100097.50;4932499;29;20036;-67
2022/09/25 06:34:21;;;;;;;17.30;12.77;;;;;;;12.69;nan;100094.66;4926348;29;20039;-67
2022/09/25 06:36:47;;;;;;;18.25;13.73;;;;;;;12.70;nan;100098.13;4932558;28;20292;-66
2022/09/25 06:39:12;;;;;;;16.50;12.70;;;;;;;12.71;nan;100097.97;4929751;28;20357;-66
2022/09/25 06:41:38;;;;;;;19.33;14.60;;;;;;;12.74;nan;100096.78;4931665;28;20042;-66
2022/09/25 06:44:03;;;;;;;15.55;11.95;;;;;;;12.82;nan;100096.72;4930587;28;20331;-66
2022/09/25 06:46:28;;;;;;;14.55;10.82;;;;;;;12.89;nan;100087.06;4926024;28;20150;-66
2022/09/25 06:48:56;;;;;;;12.85;9.90;;;;;;;12.91;nan;100100.97;4930371;29;20075;-66
2022/09/25 06:51:23;;;;;;;12.90;10.00;;;;;;;12.92;nan;100088.56;4927984;28;20032;-66
2022/09/25 06:53:52;;;;;;;15.60;12.13;;;;;;;12.88;nan;100100.53;4932442;28;20028;-67
2022/09/25 06:56:17;;;;;;;15.57;11.93;;;;;;;12.88;nan;100109.28;4923649;28;20038;-67
2022/09/25 06:58:43;;;;;;;13.60;10.07;;;;;;;12.91;nan;100106.28;4932634;28;20053;-67
2022/09/25 07:01:10;;;;;;;14.23;10.75;;;;;;;12.92;nan;100110.59;4933092;28;20067;-67
2022/09/25 07:03:44;;;;;;;11.73;9.20;;;;;;;12.94;nan;100105.94;4928272;28;20052;-66
2022/09/25 07:06:16;;;;;;;10.32;7.65;;;;;;;13.03;nan;100108.53;4930170;28;20564;-67
2022/09/25 07:08:44;;;;;;;;;;;;;;;13.04;nan;100105.69;4933844;28;20452;-67
2022/09/25 07:11:15;;;;;;;13.02;9.10;;;;;;;13.08;nan;100106.16;4922249;29;19945;-67
2022/09/25 07:13:41;;;;;;;;;;;;;;;13.11;nan;100108.47;4929351;28;20411;-67
2022/09/25 07:16:11;;;;;;;11.40;8.23;;;;;;;13.12;nan;100110.94;4930363;28;20009;-67
2022/09/25 07:18:37;;;;;;;9.82;7.95;;;;;;;13.12;nan;100110.13;4930902;28;20432;-67
2022/09/25 07:21:14;;;;;;;11.02;8.30;;;;;;;13.13;nan;100111.75;4930287;29;20055;-67
2022/09/25 07:23:40;;;;;;;8.68;6.53;;;;;;;13.16;nan;100111.41;4929568;28;20063;-67
2022/09/25 07:26:08;;;;;;;11.48;8.05;;;;;;;13.22;nan;100112.53;4928401;28;20047;-67
2022/09/25 07:28:35;;;;;;;8.13;5.95;;;;;;;13.28;nan;100110.00;4922938;29;20493;-67
2022/09/25 07:31:13;;;;;;;8.50;6.63;;;;;;;13.30;nan;100108.00;4931965;28;20047;-66
2022/09/25 07:33:39;;;;;;;11.10;8.60;;;;;;;13.29;nan;100106.34;4928185;28;20040;-67
2022/09/25 07:36:05;;;;;;;9.60;7.72;;;;;;;13.33;nan;100114.78;4925141;28;20047;-67
2022/09/25 07:38:30;;;;;;;8.82;7.40;;;;;;;13.36;nan;100109.91;4926833;29;20496;-67
2022/09/25 07:40:56;;;;;;;9.40;6.85;;;;;;;13.48;nan;100109.50;4924414;28;20091;-67
2022/09/25 07:43:22;;;;;;;8.85;7.40;;;;;;;13.57;nan;100106.56;4931838;28;20059;-67
2022/09/25 07:45:53;;;;;;;7.32;5.70;;;;;;;13.72;nan;100111.91;4925122;29;20632;-67
2022/09/25 07:48:22;;;;;;;8.23;6.65;;;;;;;13.80;nan;100113.66;4918986;29;20032;-67
2022/09/25 07:50:48;;;;;;;7.65;6.13;;;;;;;13.89;nan;100114.38;4915575;29;20508;-67
2022/09/25 07:53:14;;;;;;;7.70;5.93;;;;;;;13.99;nan;100110.44;4923149;29;20503;-67
2022/09/25 07:55:40;;;;;;;6.20;5.50;;;;;;;14.04;nan;100109.91;4921446;28;20040;-67
2022/09/25 07:58:05;;;;;;;5.70;5.10;;;;;;;14.20;nan;100112.31;4926932;28;20458;-67
2022/09/25 08:00:31;;;;;;;7.10;6.40;;;;;;;14.13;nan;100121.25;4933190;28;20122;-67
2022/09/25 08:02:57;;;;;;;6.65;5.95;;;;;;;14.08;nan;100119.13;4929374;28;20079;-66
2022/09/25 08:05:23;;;;;;;9.18;7.28;;;;;;;13.93;nan;100113.81;4924046;28;20023;-67
2022/09/25 08:07:48;;;;;;;9.18;7.20;;;;;;;13.88;nan;100116.22;4930689;28;20568;-67
2022/09/25 08:10:13;;;;;;;7.90;6.45;;;;;;;13.85;nan;100115.75;4928046;28;20046;-67
2022/09/25 08:12:39;;;;;;;9.35;7.57;;;;;;;13.81;nan;100108.16;4925974;28;20031;-67
2022/09/25 08:15:06;;;;;;;11.13;8.82;;;;;;;13.74;nan;100109.88;4927382;28;20135;-67
2022/09/25 08:17:31;;;;;;;11.15;8.52;;;;;;;13.73;nan;100108.25;4925347;28;20048;-67
2022/09/25 08:19:57;;;;;;;9.70;8.20;;;;;;;13.65;nan;100103.00;4918175;28;20043;-67
2022/09/25 08:22:22;;;;;;;8.18;6.93;;;;;;;13.70;nan;100105.94;4928355;28;20288;-67
2022/09/25 08:24:48;;;;;;;10.55;7.93;;;;;;;13.71;nan;100109.44;4925503;28;20044;-67
2022/09/25 08:27:13;;;;;;;9.27;7.47;;;;;;;13.77;nan;100109.50;4920644;29;20400;-67
2022/09/25 08:29:39;;;;;;;8.43;7.05;;;;;;;13.89;nan;100106.41;4925137;28;20065;-67
2022/09/25 08:32:05;;;;;;;8.98;7.35;;;;;;;13.94;nan;100114.66;4926365;28;20051;-67
2022/09/25 08:34:30;;;;;;;10.55;7.50;;;;;;;13.94;nan;100114.66;4924775;28;20043;-67
2022/09/25 08:36:56;;;;;;;10.35;8.25;;;;;;;13.91;nan;100110.53;4926911;28;20048;-67
2022/09/25 08:39:22;;;;;;;11.10;8.80;;;;;;;13.92;nan;100114.00;4926255;28;20074;-67
2022/09/25 08:41:54;;;;;;;10.20;7.88;;;;;;;13.91;nan;100115.03;4930245;28;20047;-67
2022/09/25 08:44:25;;;;;;;10.55;8.52;;;;;;;13.84;nan;100111.44;4927811;28;20042;-67
2022/09/25 08:49:57;;;;;;;9.95;8.23;;;;;;;13.95;nan;100105.69;4928161;28;20051;-67
2022/09/25 08:52:22;;;;;;;9.55;8.07;;;;;;;14.14;nan;100110.44;4927860;28;20164;-67
2022/09/25 08:54:50;;;;;;;9.95;8.73;;;;;;;14.26;nan;100116.09;4922403;29;20456;-67
2022/09/25 08:57:23;;;;;;;10.75;9.10;;;;;;;14.38;nan;100117.25;4922165;28;20032;-67
2022/09/25 08:59:54;;;;;;;9.65;7.97;;;;;;;14.54;nan;100112.75;4930804;28;20131;-67
2022/09/25 09:02:21;;;;;;;10.48;8.82;;;;;;;14.62;nan;100115.31;4924091;28;20085;-67
2022/09/25 09:04:51;;;;;;;9.20;7.65;;;;;;;14.59;nan;100113.84;4932191;28;20035;-67
2022/09/25 09:07:23;;;;;;;9.38;7.80;;;;;;;14.57;nan;100115.06;4927237;28;20123;-67
2022/09/25 09:09:56;;;;;;;8.55;7.35;;;;;;;14.55;nan;100115.25;4930436;28;20457;-67
2022/09/25 09:12:36;;;;;;;8.50;7.55;;;;;;;14.56;nan;100114.25;4926937;28;20500;-67
2022/09/25 09:15:21;;;;;;;6.50;5.60;;;;;;;14.77;nan;100115.25;4933588;28;20054;-67
2022/09/25 09:17:46;;;;;;;6.80;6.07;;;;;;;14.88;nan;100119.28;4922341;28;20477;-67
2022/09/25 09:20:18;;;;;;;8.73;6.97;;;;;;;14.90;nan;100115.41;4932924;28;20060;-67
2022/09/25 09:22:49;;;;;;;7.38;6.40;;;;;;;14.78;nan;100112.41;4926975;28;20282;-67
2022/09/25 09:25:25;;;;;;;6.20;5.60;;;;;;;14.57;nan;100113.22;4923221;29;20038;-68
2022/09/25 09:28:21;;;;;;;7.63;6.25;;;;;;;14.46;nan;100126.97;4931118;28;20452;-67
2022/09/25 09:30:53;;;;;;;7.30;5.60;;;;;;;14.50;nan;100120.28;4932101;28;20099;-67
2022/09/25 09:33:45;;;;;;;7.82;6.35;;;;;;;14.56;nan;100122.22;4925022;28;20040;-67
2022/09/25 09:36:35;;;;;;;6.13;5.53;;;;;;;14.67;nan;100120.91;4930657;28;20039;-67
2022/09/25 09:39:24;;;;;;;7.68;6.88;;;;;;;14.69;nan;100120.72;4931027;29;20039;-67
2022/09/25 09:42:00;;;;;;;8.00;7.13;;;;;;;14.77;nan;100115.25;4932796;28;20051;-67
2022/09/25 09:44:58;;;;;;;8.32;6.70;;;;;;;14.92;nan;100117.84;4932922;28;20067;-67
2022/09/25 09:47:49;;;;;;;8.90;7.03;;;;;;;14.91;nan;100114.38;4925332;28;20040;-67
2022/09/25 09:50:20;;;;;;;7.38;6.20;;;;;;;15.03;nan;100118.16;4923695;28;20035;-67
2022/09/25 09:52:50;;;;;;;6.38;4.93;;;;;;;15.19;nan;100110.94;4929877;28;20044;-67
2022/09/25 09:55:34;;;;;;;7.03;5.70;;;;;;;15.27;nan;100116.13;4927727;28;20051;-67
2022/09/25 09:58:04;;;;;;;6.00;5.00;;;;;;;15.24;nan;100116.53;4925577;29;20096;-67
2022/09/25 10:00:31;;;;;;;8.45;6.15;;;;;;;15.10;nan;100118.25;4933870;28;20413;-67
2022/09/25 10:03:21;;;;;;;7.00;5.50;;;;;;;14.98;nan;100125.09;4932118;28;20043;-67
2022/09/25 10:05:48;;;;;;;8.27;6.03;;;;;;;14.97;nan;100129.59;4931214;28;20386;-67
2022/09/25 10:08:15;;;;;;;5.45;4.70;;;;;;;14.95;nan;100122.81;4931122;28;20036;-67
2022/09/25 10:10:44;;;;;;;4.30;3.70;;;;;;;15.08;nan;100121.09;4932970;28;20036;-67
2022/09/25 10:13:19;;;;;;;3.28;2.92;;;;;;;15.35;nan;100118.66;4929367;28;20943;-67
2022/09/25 10:16:06;;;;;;;4.22;3.15;;;;;;;15.43;nan;100109.69;4930977;28;20038;-67
2022/09/25 10:18:41;;;;;;;4.05;3.00;;;;;;;15.31;nan;100105.94;4917436;29;20492;-67
2022/09/25 10:21:13;;;;;;;4.15;2.97;;;;;;;15.27;nan;100103.63;4927235;28;20035;-67
2022/09/25 10:23:46;;;;;;;3.70;3.10;;;;;;;15.27;nan;100108.13;4927561;28;20035;-67
2022/09/25 10:26:44;;;;;;;3.72;3.15;;;;;;;15.16;nan;100098.00;4915604;29;20505;-67
2022/09/25 10:29:26;;;;;;;3.92;2.97;;;;;;;15.33;nan;100104.72;4893873;29;20149;-67
2022/09/25 10:32:02;;;;;;;4.55;3.42;;;;;;;15.43;nan;100099.88;4924012;28;20175;-67
2022/09/25 10:34:30;;;;;;;4.65;3.15;;;;;;;15.59;nan;100097.91;4918607;29;20040;-67
2022/09/25 10:36:55;;;;;;;3.55;3.00;;;;;;;15.81;nan;100096.88;4920496;28;20055;-67
2022/09/25 10:39:33;;;;;;;3.38;2.50;;;;;;;16.13;nan;100102.56;4926408;28;20031;-67
2022/09/25 10:42:00;;;;;;;3.97;3.30;;;;;;;16.39;nan;100103.69;4925622;29;20040;-67
2022/09/25 10:44:33;;;;;;;4.35;3.30;;;;;;;16.26;nan;100107.94;4927945;28;20058;-68
2022/09/25 10:50:11;;;;;;;3.92;3.38;;;;;;;16.56;nan;100099.63;4918296;29;20088;-67
2022/09/25 10:52:57;;;;;;;5.15;4.05;;;;;;;16.51;nan;100099.41;4923765;28;20127;-68
2022/09/25 10:55:29;;;;;;;5.25;4.00;;;;;;;16.45;nan;100105.56;4916052;28;20048;-67
2022/09/25 10:58:09;;;;;;;4.53;3.85;;;;;;;16.67;nan;100108.91;4925581;28;20048;-67
2022/09/25 11:00:53;;;;;;;5.07;3.08;;;;;;;16.85;nan;100105.66;4928430;28;20116;-68
2022/09/25 11:03:27;;;;;;;3.90;3.00;;;;;;;16.95;nan;100109.59;4918141;29;20039;-67
2022/09/25 11:06:00;;;;;;;4.40;3.30;;;;;;;16.86;nan;100110.81;4914993;28;20579;-67
2022/09/25 11:08:29;;;;;;;3.28;2.80;;;;;;;16.83;nan;100110.38;4925979;28;21437;-67
2022/09/25 11:10:57;;;;;;;3.63;2.47;;;;;;;16.86;nan;100110.81;4916479;29;20033;-67
2022/09/25 11:13:29;;;;;;;3.97;3.00;;;;;;;16.97;nan;100115.56;4918679;28;20040;-67
2022/09/25 11:16:00;;;;;;;3.75;2.70;;;;;;;16.89;nan;100104.25;4922138;29;20039;-67
2022/09/25 11:18:45;;;;;;;2.97;2.50;;;;;;;16.80;nan;100108.94;4920205;28;20260;-67
2022/09/25 11:21:16;;;;;;;3.30;2.80;;;;;;;16.93;nan;100110.84;4922610;28;20040;-67
2022/09/25 11:23:59;;;;;;;3.70;2.75;;;;;;;16.96;nan;100102.41;4923145;29;20396;-68
2022/09/25 11:26:33;;;;;;;3.22;2.50;;;;;;;17.01;nan;100110.63;4931466;28;20055;-68
2022/09/25 11:29:33;;;;;;;2.90;2.40;;;;;;;17.00;nan;100106.31;4929244;29;20283;-67
2022/09/25 11:32:18;;;;;;;3.60;3.03;;;;;;;16.90;nan;100103.22;4908051;29;20039;-66
2022/09/25 11:35:02;;;;;;;3.65;2.65;;;;;;;16.88;nan;100097.28;4920857;29;20044;-68
2022/09/25 11:37:38;;;;;;;3.65;2.92;;;;;;;16.90;nan;100104.06;4924715;28;20348;-67
2022/09/25 11:43:08;;;;;;;4.20;3.53;;;;;;;16.54;nan;100107.84;4922463;28;20256;-68
2022/09/25 11:45:52;;;;;;;10.95;6.82;;;;;;;16.29;nan;100104.88;4930430;29;20131;-68
2022/09/25 11:48:53;;;;;;;5.93;4.55;;;;;;;16.07;nan;100101.50;4917693;29;20028;-68
2022/09/25 11:51:36;;;;;;;6.43;4.35;;;;;;;16.10;nan;100105.63;4922697;28;20175;-68
2022/09/25 11:54:16;;;;;;;6.22;4.40;;;;;;;16.18;nan;100097.44;4927565;28;20273;-67
2022/09/25 11:56:56;;;;;;;5.00;4.00;;;;;;;16.44;nan;100098.56;4929102;29;20083;-68
2022/09/25 11:59:43;;;;;;;5.53;4.35;;;;;;;16.75;nan;100098.03;4919405;29;20036;-67
2022/09/25 12:02:28;;;;;;;3.88;3.30;;;;;;;17.16;nan;100097.06;4926498;28;20380;-68
2022/09/25 12:05:15;;;;;;;3.15;2.50;;;;;;;17.14;nan;100086.59;4931562;28;20054;-68
2022/09/25 12:08:05;;;;;;;3.58;2.80;;;;;;;17.12;nan;100093.19;4928276;28;20148;-68
2022/09/25 12:10:38;;;;;;;3.67;2.90;;;;;;;17.50;nan;100084.53;4925039;28;20036;-68
2022/09/25 12:13:30;;;;;;;4.05;2.95;;;;;;;17.92;nan;100088.53;4928912;29;20155;-68
2022/09/25 12:16:10;;;;;;;3.53;2.08;;;;;;;18.06;nan;100088.50;4927748;28;20040;-68
2022/09/25 12:18:54;;;;;;;;;;;;;;;18.37;nan;100091.25;4925976;28;20047;-68